Wetterdaten: aktuell Donnerstag, 23.05.2019 18:00
Datum Zeit Temp. A. Luft Gew. Boden Gew. Boden A. Feuchte A. Luftdruck Regen Wind Richtung Richtung Sonnenschein ET UV Solar Taupunkt Windchill Windben Empfang
23.05.2019 18:00 18.9 C 28.3 C 15.0 C 20.6 C 42 % 1018.7 hPa 0.0 l/m 1.3 km/h (1 Bft) O-NO 59 60 min 0.001 mm 1.6 UV-I 443 W/m 5.7 C 18.9 C 6.4 km/h (2 Bft) 98.45 %
23.05.2019 17:00 18.8 C 28.3 C 14.4 C 20.6 C 38 % 1019.2 hPa 0.0 l/m 1.2 km/h (1 Bft) O-NO 74 60 min 0.482 mm 3.0 UV-I 616 W/m 4.2 C 18.8 C 6.4 km/h (2 Bft) 98.31 %
23.05.2019 16:00 18.7 C 27.2 C 13.9 C 20.0 C 47 % 1019.5 hPa 0.0 l/m 4.1 km/h (1 Bft) O 82 60 min 0.483 mm 4.7 UV-I 765 W/m 7.2 C 18.7 C 8.0 km/h (2 Bft) 96.58 %
23.05.2019 15:00 18.4 C 26.1 C 13.9 C 19.4 C 47 % 1020.0 hPa 0.0 l/m 4.1 km/h (1 Bft) NO 52 60 min 0.508 mm 6.3 UV-I 887 W/m 6.9 C 18.4 C 11.3 km/h (2 Bft) 100.00 %
23.05.2019 14:00 17.7 C 24.4 C 13.3 C 18.9 C 54 % 1020.6 hPa 0.0 l/m 2.2 km/h (1 Bft) N 360 60 min 0.508 mm 6.7 UV-I 827 W/m 8.3 C 17.7 C 9.7 km/h (2 Bft) 100.00 %
23.05.2019 13:00 16.6 C 23.3 C 13.3 C 17.8 C 54 % 1021.2 hPa 0.0 l/m 2.4 km/h (1 Bft) N-NW 347 60 min 0.458 mm 7.0 UV-I 868 W/m 7.3 C 16.6 C 8.0 km/h (2 Bft) 97.22 %
23.05.2019 12:00 16.3 C 23.3 C 12.8 C 16.1 C 58 % 1021.6 hPa 0.0 l/m 5.5 km/h (1 Bft) NO 41 60 min 0.458 mm 6.5 UV-I 869 W/m 8.0 C 16.3 C 12.9 km/h (3 Bft) 95.73 %
23.05.2019 11:00 15.5 C 22.8 C 12.2 C 15.0 C 60 % 1021.7 hPa 0.0 l/m 6.2 km/h (2 Bft) NO 50 60 min 0.406 mm 5.3 UV-I 797 W/m 7.8 C 15.5 C 16.1 km/h (3 Bft) 98.20 %
23.05.2019 10:00 14.3 C 23.9 C 12.2 C 12.8 C 69 % 1022.1 hPa 0.0 l/m 6.5 km/h (2 Bft) NO 49 60 min 0.305 mm 3.6 UV-I 642 W/m 8.7 C 14.3 C 11.3 km/h (2 Bft) 100.00 %
23.05.2019 09:00 12.8 C 18.9 C 16.1 C 20.6 C 81 % 1022.2 hPa 0.0 l/m 2.1 km/h (1 Bft) O-NO 59 60 min 0.203 mm 2.2 UV-I 508 W/m 9.6 C 12.8 C 6.4 km/h (2 Bft) 96.67 %
23.05.2019 08:00 9.2 C 13.9 C 16.1 C 20.6 C 95 % 1022.2 hPa 0.0 l/m 0.0 km/h (0 Bft) W-NW 298 60 min 0.025 mm 1.1 UV-I 317 W/m 8.4 C 9.2 C 1.6 km/h (1 Bft) 97.14 %
23.05.2019 07:00 6.3 C 6.7 C 16.1 C 20.6 C 95 % 1022.0 hPa 0.0 l/m 1.2 km/h (1 Bft) W-NW 298 0 min 0.025 mm 0.0 UV-I 149 W/m 5.6 C 6.3 C 6.4 km/h (2 Bft) 98.29 %
23.05.2019 06:00 4.7 C 3.9 C 16.1 C 20.6 C 94 % 1022.0 hPa 0.0 l/m 0.1 km/h (0 Bft) W-NW 298 0 min 0.000 mm 0.0 UV-I 23 W/m 3.8 C 4.7 C 1.6 km/h (1 Bft) 94.87 %
23.05.2019 05:00 5.2 C 4.4 C 16.1 C 20.6 C 94 % 1021.7 hPa 0.0 l/m 0.3 km/h (0 Bft) W-NW 298 0 min 0.000 mm 0.0 UV-I 0 W/m 4.3 C 5.2 C 3.2 km/h (1 Bft) 95.83 %
23.05.2019 04:00 5.8 C 5.0 C 16.1 C 20.6 C 93 % 1021.7 hPa 0.0 l/m 1.3 km/h (1 Bft) W-NW 298 0 min 0.000 mm 0.0 UV-I 0 W/m 4.8 C 5.8 C 6.4 km/h (2 Bft) 98.29 %
23.05.2019 03:00 6.2 C 5.6 C 16.1 C 20.6 C 92 % 1021.6 hPa 0.0 l/m 0.0 km/h (0 Bft) W-NW 298 0 min 0.000 mm 0.0 UV-I 0 W/m 5.0 C 6.2 C 0.0 km/h (0 Bft) 100.00 %
23.05.2019 02:00 7.2 C 6.1 C 16.1 C 20.6 C 92 % 1021.7 hPa 0.0 l/m 0.0 km/h (0 Bft) W-NW 298 0 min 0.000 mm 0.0 UV-I 0 W/m 6.0 C 7.2 C 0.0 km/h (0 Bft) 100.00 %
23.05.2019 01:00 7.9 C 7.2 C 16.1 C 20.6 C 91 % 1021.6 hPa 0.0 l/m 0.0 km/h (0 Bft) W-NW 298 0 min 0.000 mm 0.0 UV-I 0 W/m 6.5 C 7.9 C 0.0 km/h (0 Bft) 99.15 %
23.05.2019 00:00 9.2 C 8.3 C 16.1 C 20.6 C 89 % 1021.6 hPa 0.0 l/m 0.0 km/h (0 Bft) W-NW 298 0 min 0.000 mm 0.0 UV-I 0 W/m 7.5 C 9.2 C 0.0 km/h (0 Bft) 100.00 %
22.05.2019 23:00 10.6 C 10.0 C 16.1 C 20.6 C 87 % 1021.5 hPa 0.0 l/m 0.0 km/h (0 Bft) W-NW 298 0 min 0.000 mm 0.0 UV-I 0 W/m 8.5 C 10.6 C 0.0 km/h (0 Bft) 100.00 %
22.05.2019 22:00 11.8 C 12.2 C 16.1 C 20.6 C 84 % 1021.4 hPa 0.0 l/m 0.0 km/h (0 Bft) W-NW 298 0 min 0.001 mm 0.0 UV-I 0 W/m 9.2 C 11.8 C 0.0 km/h (0 Bft) 97.44 %
22.05.2019 21:00 12.7 C 16.7 C 16.1 C 20.6 C 82 % 1020.6 hPa 0.0 l/m 0.0 km/h (0 Bft) W-NW 298 0 min 0.076 mm 0.0 UV-I 6 W/m 9.7 C 12.7 C 0.0 km/h (0 Bft) 99.15 %
22.05.2019 20:00 14.2 C 23.9 C 16.1 C 20.6 C 74 % 1020.3 hPa 0.0 l/m 3.5 km/h (1 Bft) NW 325 30 min 0.178 mm 0.0 UV-I 48 W/m 9.6 C 14.2 C 14.5 km/h (3 Bft) 99.15 %
22.05.2019 19:00 15.0 C 25.0 C 16.1 C 20.6 C 70 % 1020.0 hPa 0.0 l/m 5.7 km/h (1 Bft) W 268 0 min 0.000 mm 0.7 UV-I 262 W/m 9.6 C 15.0 C 14.5 km/h (3 Bft) 98.29 %
_ Min-Zeit 06:05 05:15 09:25 09:25 16:55 17:50 - 20:40 - - - - - - 06:05 06:05 21:00 04:10
Minimum _ 4.6 C 3.9 C 11.7 C 11.7 C 38 % 1018.7 hPa - 0.0 km/h (0 Bft) - - - - - - 3.7 C 4.6 C 0.0 km/h (0 Bft) 88.89 %
_ Max-Zeit 17:20 16:55 19:00 19:00 06:30 08:20 19:00 12:35 - - 19:00 14:00 13:15 12:25 08:50 17:20 11:45 19:35
Maximum _ 19.5 C 28.3 C 16.1 C 20.6 C 95 % 1022.5 hPa 0.0 l/m 8.7 km/h
O-NO (2 Bft)
- - 5 min 0.508 mm 7.3 UV-I 935 W/m 10.4 C 19.5 C 17.7 km/h
O-NO (3 Bft)
100.00 %
Durchschnitt _ 12.3 C 16.7 C 15.2 C 19.6 C 75 % 1021.1 hPa #0.0 l/m 2.1 km/h (1 Bft) O-NO - #11:00 h #3.861 mm 4.3 UV-I 598 W/m 7.4 C 12.3 C 6.3 km/h (2 Bft) 98.14 %